< < Back
Terminal Aerodrome Forecast


Current Version              Previous Versions:   1  2  3  4  5  6  7  8  9  

Terminal Aerodrome Forecast

416
FTUS42 KTAE 200500
TAFABY
TAF
KABY 200539Z 2006/2106 01004KT P6SM -RA OVC070
     FM201100 05005KT 6SM -RA OVC025
     FM201700 04003KT P6SM BKN040
     FM210100 05005KT P6SM OVC020=

Latest METAR

235
SAUS70 KWBC 201800 RRB
MTRABY
METAR KABY 201753Z 01004KT 10SM BKN008 OVC065 13/10 A3017 RMK AO2 SLP217
60001 T01330100 10133 20094 58014


USA.gov is the U.S. government's official web portal to all federal, state and local government web resources and services.